Time;durP1;ratioP1;P1;durP2;ratioP2;P2;SDS_P1;SDS_P2;PMS_P1;PMS_P2;Temp;Humidity;BMP_temperature;BMP_pressure;BME280_temperature;BME280_humidity;BME280_pressure;Samples;Min_cycle;Max_cycle;Signal;HPM_P1;HPM_P2
2022/06/06 00:01:39;;;;;;;3.10;2.77;;;18.40;99.90;;;;;;5019114;28;20414;-73
2022/06/06 00:04:05;;;;;;;4.10;2.90;;;18.40;99.90;;;;;;5019648;28;20446;-74
2022/06/06 00:06:31;;;;;;;2.50;2.30;;;18.50;99.90;;;;;;5017666;28;20203;-75
2022/06/06 00:08:57;;;;;;;2.53;2.33;;;18.40;99.90;;;;;;5017965;28;20211;-72
2022/06/06 00:11:23;;;;;;;3.83;2.47;;;18.30;99.90;;;;;;5016921;28;20171;-73
2022/06/06 00:13:49;;;;;;;3.07;2.73;;;18.30;99.90;;;;;;5019351;28;20529;-73
2022/06/06 00:16:15;;;;;;;3.10;2.37;;;18.20;99.90;;;;;;5018651;28;20414;-74
2022/06/06 00:18:41;;;;;;;2.83;2.60;;;18.20;99.90;;;;;;5020245;28;20420;-75
2022/06/06 00:21:10;;;;;;;2.83;2.63;;;18.20;99.90;;;;;;5020905;28;20479;-74
2022/06/06 00:23:36;;;;;;;3.40;2.63;;;18.40;99.90;;;;;;5017548;28;20183;-73
2022/06/06 00:26:08;;;;;;;2.87;2.67;;;18.30;99.90;;;;;;5017371;28;20938;-75
2022/06/06 00:28:35;;;;;;;4.10;3.03;;;18.30;99.90;;;;;;5018140;28;20407;-73
2022/06/06 00:36:34;;;;;;;3.47;2.37;;;18.40;99.90;;;;;;5020452;28;20444;-74
2022/06/06 00:39:01;;;;;;;5.10;2.73;;;18.40;99.90;;;;;;5017915;28;20421;-75
2022/06/06 00:41:26;;;;;;;2.60;2.40;;;18.20;99.90;;;;;;5018743;28;20427;-74
2022/06/06 00:44:10;;;;;;;3.00;2.80;;;18.30;99.90;;;;;;5019162;28;20430;-74
2022/06/06 00:46:58;;;;;;;3.90;3.13;;;18.20;99.90;;;;;;5018687;28;20588;-74
2022/06/06 00:49:30;;;;;;;3.63;3.03;;;18.20;99.90;;;;;;5005241;28;20907;-73
2022/06/06 00:51:56;;;;;;;2.80;2.60;;;18.30;99.90;;;;;;5017758;28;20406;-73
2022/06/06 00:54:23;;;;;;;3.40;3.10;;;18.30;99.90;;;;;;5018717;28;20444;-73
2022/06/06 00:57:02;;;;;;;2.90;2.70;;;18.30;99.90;;;;;;5017912;28;20987;-75
2022/06/06 00:59:32;;;;;;;2.87;2.67;;;18.40;99.90;;;;;;5018372;28;20441;-73
2022/06/06 01:01:58;;;;;;;3.80;3.00;;;18.20;99.90;;;;;;5019812;28;20484;-73
2022/06/06 01:04:26;;;;;;;3.40;2.77;;;18.10;99.90;;;;;;5020858;28;20575;-73
2022/06/06 01:06:53;;;;;;;3.40;3.10;;;18.20;99.90;;;;;;5021250;28;20248;-74
2022/06/06 01:09:20;;;;;;;3.00;2.70;;;18.10;99.90;;;;;;5019786;28;20936;-75
2022/06/06 01:11:49;;;;;;;3.30;3.00;;;18.10;99.90;;;;;;5022034;28;20441;-73
2022/06/06 01:14:20;;;;;;;4.50;3.10;;;18.10;99.90;;;;;;5021234;28;20453;-73
2022/06/06 01:16:53;;;;;;;3.23;2.93;;;18.10;99.90;;;;;;5019926;28;20525;-73
2022/06/06 01:19:37;;;;;;;3.23;2.90;;;18.00;99.90;;;;;;5023564;28;20934;-73
2022/06/06 01:22:12;;;;;;;3.90;3.30;;;18.10;99.90;;;;;;5021354;28;20496;-73
2022/06/06 01:25:14;;;;;;;4.17;3.50;;;17.90;99.90;;;;;;5023503;28;20437;-73
2022/06/06 01:27:46;;;;;;;5.70;3.83;;;17.90;99.90;;;;;;5022262;28;20414;-73
2022/06/06 01:30:20;;;;;;;4.63;3.03;;;17.80;99.90;;;;;;5021366;28;20469;-72
2022/06/06 01:32:52;;;;;;;2.87;2.60;;;17.80;99.90;;;;;;5027513;28;20430;-73
2022/06/06 01:35:28;;;;;;;3.53;3.23;;;17.90;99.90;;;;;;5026709;28;20461;-73
2022/06/06 01:37:54;;;;;;;3.50;3.13;;;18.00;99.90;;;;;;5024835;28;20779;-73
2022/06/06 01:40:20;;;;;;;4.17;3.07;;;18.00;99.90;;;;;;5020795;28;20423;-73
2022/06/06 01:42:56;;;;;;;5.87;2.77;;;18.00;99.90;;;;;;5017981;28;20664;-74
2022/06/06 01:45:36;;;;;;;3.50;3.20;;;18.00;99.90;;;;;;5028647;28;20460;-73
2022/06/06 01:48:09;;;;;;;3.57;3.27;;;17.80;99.90;;;;;;5017004;28;20398;-72
2022/06/06 01:50:40;;;;;;;4.87;3.40;;;17.70;99.90;;;;;;5023934;28;21002;-73
2022/06/06 01:53:09;;;;;;;3.50;2.93;;;17.60;99.90;;;;;;5022237;28;20560;-73
2022/06/06 01:55:37;;;;;;;3.90;3.40;;;17.70;99.90;;;;;;5020474;28;20449;-73
2022/06/06 01:58:07;;;;;;;5.73;3.17;;;17.70;99.90;;;;;;5020859;28;20429;-73
2022/06/06 02:00:35;;;;;;;3.70;3.40;;;17.60;99.90;;;;;;5019963;28;20500;-74
2022/06/06 02:03:01;;;;;;;3.83;3.50;;;17.60;99.90;;;;;;5020217;28;20435;-73
2022/06/06 02:05:27;;;;;;;3.97;3.63;;;17.50;99.90;;;;;;5024516;28;20458;-73
2022/06/06 02:07:53;;;;;;;3.57;3.27;;;17.50;99.90;;;;;;5020464;28;20178;-73
2022/06/06 02:10:19;;;;;;;5.53;3.97;;;17.50;99.90;;;;;;5017647;28;20423;-75
2022/06/06 02:12:45;;;;;;;4.50;4.10;;;17.50;99.90;;;;;;5022301;28;20222;-74
2022/06/06 02:15:14;;;;;;;3.90;3.50;;;17.50;99.90;;;;;;5021148;28;20474;-74
2022/06/06 02:17:40;;;;;;;4.83;3.40;;;17.30;99.90;;;;;;5023971;28;20405;-73
2022/06/06 02:20:06;;;;;;;3.37;3.07;;;17.30;99.90;;;;;;5021647;28;20495;-73
2022/06/06 02:22:32;;;;;;;4.30;3.90;;;17.30;99.90;;;;;;5027498;28;20651;-73
2022/06/06 02:24:58;;;;;;;4.10;3.23;;;17.30;99.90;;;;;;5025940;28;20433;-72
2022/06/06 02:27:24;;;;;;;4.43;4.03;;;17.30;99.90;;;;;;5020864;28;20248;-73
2022/06/06 02:29:50;;;;;;;6.10;3.80;;;17.30;99.90;;;;;;5019533;28;20174;-73
2022/06/06 02:32:15;;;;;;;6.00;3.50;;;17.30;99.90;;;;;;5025526;28;20460;-73
2022/06/06 02:34:41;;;;;;;5.83;4.27;;;17.20;99.90;;;;;;5019395;28;20217;-73
2022/06/06 02:37:07;;;;;;;4.10;3.67;;;17.20;99.90;;;;;;5018943;28;20186;-72
2022/06/06 02:39:33;;;;;;;4.63;4.23;;;17.20;99.90;;;;;;5018757;28;20237;-74
2022/06/06 02:41:59;;;;;;;4.07;3.77;;;17.20;99.90;;;;;;5021470;28;20918;-74
2022/06/06 02:44:24;;;;;;;4.63;4.13;;;17.20;99.90;;;;;;5024040;28;20204;-73
2022/06/06 02:46:50;;;;;;;4.63;3.87;;;17.20;99.90;;;;;;5018836;28;20462;-73
2022/06/06 02:49:16;;;;;;;5.70;3.40;;;17.20;99.90;;;;;;5023045;28;20258;-73
2022/06/06 02:51:43;;;;;;;4.37;3.73;;;17.20;99.90;;;;;;5018357;28;20230;-73
2022/06/06 02:54:09;;;;;;;4.90;4.43;;;17.30;99.90;;;;;;5016406;28;20417;-74
2022/06/06 02:56:35;;;;;;;4.50;4.10;;;17.30;99.90;;;;;;5017255;28;20410;-73
2022/06/06 02:59:05;;;;;;;4.60;4.20;;;17.10;99.90;;;;;;5017439;28;20422;-73
2022/06/06 03:01:31;;;;;;;7.00;4.10;;;17.10;99.90;;;;;;5017953;28;20175;-75
2022/06/06 03:03:57;;;;;;;4.63;4.20;;;16.90;99.90;;;;;;5019345;28;20414;-72
2022/06/06 03:06:43;;;;;;;4.87;4.30;;;16.70;99.90;;;;;;5018601;28;20475;-75
2022/06/06 03:09:29;;;;;;;5.50;4.77;;;16.70;99.90;;;;;;5019415;28;20189;-74
2022/06/06 03:12:21;;;;;;;4.90;4.50;;;16.70;99.90;;;;;;5018914;28;20433;-73
2022/06/06 03:14:59;;;;;;;5.87;4.27;;;16.80;99.90;;;;;;5020550;28;20446;-73
2022/06/06 03:20:56;;;;;;;4.33;4.00;;;16.70;99.90;;;;;;5018448;28;20609;-73
2022/06/06 03:23:55;;;;;;;8.80;4.40;;;16.70;99.90;;;;;;5020264;28;20456;-73
2022/06/06 03:26:50;;;;;;;7.60;4.20;;;16.70;99.90;;;;;;5020102;28;20513;-74
2022/06/06 03:29:41;;;;;;;4.20;3.80;;;16.80;99.90;;;;;;5018229;28;20429;-73
2022/06/06 03:32:09;;;;;;;4.33;4.03;;;16.70;99.90;;;;;;5022206;28;20456;-73
2022/06/06 03:35:04;;;;;;;5.20;4.10;;;16.70;99.90;;;;;;5022047;28;20472;-73
2022/06/06 03:37:52;;;;;;;4.50;4.10;;;16.70;99.90;;;;;;5020005;28;20408;-73
2022/06/06 03:40:29;;;;;;;5.53;4.53;;;16.70;99.90;;;;;;5015449;28;20513;-74
2022/06/06 03:43:27;;;;;;;5.60;4.40;;;16.80;99.90;;;;;;5017570;28;20449;-73
2022/06/06 03:46:18;;;;;;;6.03;4.63;;;16.90;99.90;;;;;;5018025;28;21004;-74
2022/06/06 03:49:12;;;;;;;3.87;3.57;;;17.00;99.90;;;;;;5017634;28;20475;-73
2022/06/06 03:52:14;;;;;;;5.03;4.43;;;17.00;99.90;;;;;;5017382;28;20767;-73
2022/06/06 03:54:49;;;;;;;4.33;3.93;;;17.10;99.90;;;;;;4974924;28;20499;-73
2022/06/06 03:57:18;;;;;;;4.00;3.20;;;17.20;99.90;;;;;;5016004;28;20411;-73
2022/06/06 03:59:47;;;;;;;4.40;4.03;;;17.30;99.90;;;;;;5018255;28;20923;-73
2022/06/06 04:02:28;;;;;;;4.90;4.20;;;17.30;99.90;;;;;;5018213;28;20468;-73
2022/06/06 04:04:55;;;;;;;4.63;3.73;;;17.40;99.90;;;;;;5018536;28;20496;-73
2022/06/06 04:07:21;;;;;;;4.80;4.37;;;17.40;99.90;;;;;;5018896;28;20472;-73
2022/06/06 04:09:47;;;;;;;3.93;3.53;;;17.30;99.90;;;;;;5018059;28;20429;-73
2022/06/06 04:12:37;;;;;;;4.00;3.70;;;17.30;99.90;;;;;;5017349;28;20183;-73
2022/06/06 04:15:20;;;;;;;4.17;3.83;;;17.30;99.90;;;;;;5018974;28;20337;-73
2022/06/06 04:18:09;;;;;;;4.97;4.37;;;17.40;99.90;;;;;;5019098;28;20474;-74
2022/06/06 04:20:52;;;;;;;3.90;3.60;;;17.40;99.90;;;;;;5020572;28;20926;-74
2022/06/06 04:23:27;;;;;;;11.33;4.07;;;17.40;99.90;;;;;;5016144;28;21020;-73
2022/06/06 04:26:07;;;;;;;5.03;4.53;;;17.40;99.90;;;;;;5018771;28;20480;-74
2022/06/06 04:28:47;;;;;;;5.07;3.97;;;17.30;99.90;;;;;;5016990;28;20406;-74
2022/06/06 04:31:34;;;;;;;4.00;3.70;;;17.30;99.90;;;;;;5019015;28;20436;-73
2022/06/06 04:34:35;;;;;;;4.07;3.67;;;17.30;99.90;;;;;;5021859;28;20501;-73
2022/06/06 04:37:23;;;;;;;4.40;4.00;;;17.40;99.90;;;;;;5018480;28;20506;-74
2022/06/06 04:39:59;;;;;;;3.83;3.53;;;17.60;99.90;;;;;;5020794;28;20484;-73
2022/06/06 04:42:36;;;;;;;6.13;3.50;;;17.60;99.90;;;;;;5018963;28;20409;-74
2022/06/06 04:45:12;;;;;;;4.60;3.97;;;17.70;99.90;;;;;;5020104;28;20541;-73
2022/06/06 04:47:41;;;;;;;3.80;3.50;;;17.70;99.90;;;;;;5016807;28;20773;-73
2022/06/06 04:50:25;;;;;;;4.20;3.80;;;17.70;99.90;;;;;;5022090;28;20445;-74
2022/06/06 04:52:59;;;;;;;8.53;4.73;;;17.80;99.90;;;;;;5021182;28;20422;-74
2022/06/06 04:55:27;;;;;;;4.27;3.87;;;17.90;99.90;;;;;;5016656;28;20465;-75
2022/06/06 04:57:55;;;;;;;4.67;4.27;;;18.10;99.90;;;;;;5016273;28;20414;-72
2022/06/06 05:00:21;;;;;;;4.13;3.70;;;18.30;99.90;;;;;;5016708;28;20432;-73
2022/06/06 05:02:47;;;;;;;3.97;3.67;;;18.30;99.90;;;;;;5019666;28;20446;-74
2022/06/06 05:05:13;;;;;;;6.80;3.73;;;18.30;99.90;;;;;;5018473;28;20930;-73
2022/06/06 05:07:42;;;;;;;4.10;3.80;;;18.40;99.90;;;;;;5020444;28;20175;-73
2022/06/06 05:10:16;;;;;;;4.07;3.77;;;18.30;99.90;;;;;;5022330;28;20180;-73
2022/06/06 05:12:49;;;;;;;4.10;3.80;;;18.50;99.90;;;;;;5022567;28;20409;-73
2022/06/06 05:15:21;;;;;;;3.90;3.60;;;18.60;99.90;;;;;;5019809;28;20426;-74
2022/06/06 05:17:49;;;;;;;3.37;3.07;;;18.80;99.90;;;;;;5018803;28;21086;-72
2022/06/06 05:20:21;;;;;;;4.00;3.33;;;19.00;99.90;;;;;;5016129;28;20411;-72
2022/06/06 05:23:13;;;;;;;3.47;3.17;;;19.20;99.90;;;;;;5020726;28;20418;-74
2022/06/06 05:25:54;;;;;;;3.90;3.50;;;19.40;99.90;;;;;;5020118;28;20466;-73
2022/06/06 05:28:44;;;;;;;6.30;3.23;;;19.50;99.90;;;;;;5018949;28;20408;-74
2022/06/06 05:31:25;;;;;;;3.40;3.20;;;19.40;99.90;;;;;;5015420;28;20414;-73
2022/06/06 05:34:01;;;;;;;5.27;3.53;;;19.40;99.90;;;;;;5018403;28;20468;-73
2022/06/06 05:36:35;;;;;;;3.60;3.30;;;19.40;99.90;;;;;;5022027;28;20420;-73
2022/06/06 05:39:19;;;;;;;3.27;3.07;;;19.50;99.90;;;;;;5020636;28;20505;-75
2022/06/06 05:42:12;;;;;;;3.47;3.17;;;19.60;99.90;;;;;;5017415;28;20470;-72
2022/06/06 05:45:12;;;;;;;3.40;3.10;;;19.70;99.90;;;;;;5018594;28;20446;-73
2022/06/06 05:48:09;;;;;;;5.03;3.30;;;19.80;99.90;;;;;;4948473;28;20441;-73
2022/06/06 05:50:55;;;;;;;3.60;3.30;;;20.00;99.90;;;;;;5015959;28;20399;-73
2022/06/06 05:53:42;;;;;;;3.43;3.13;;;20.10;99.90;;;;;;5019481;28;20433;-74
2022/06/06 05:56:16;;;;;;;3.87;2.93;;;20.30;99.90;;;;;;5022498;28;20942;-73
2022/06/06 05:59:10;;;;;;;3.07;2.87;;;20.50;99.90;;;;;;5021562;28;20471;-75
2022/06/06 06:01:36;;;;;;;3.60;3.27;;;20.60;99.90;;;;;;5023262;28;20406;-73
2022/06/06 06:04:33;;;;;;;3.30;3.10;;;20.60;99.90;;;;;;5020238;28;20456;-74
2022/06/06 06:07:40;;;;;;;3.67;3.37;;;20.70;99.90;;;;;;5021522;28;20266;-73
2022/06/06 06:10:15;;;;;;;3.80;3.50;;;20.80;99.90;;;;;;5029065;28;20444;-74
2022/06/06 06:12:56;;;;;;;4.97;3.80;;;20.80;99.90;;;;;;5021487;28;20782;-75
2022/06/06 06:15:42;;;;;;;3.83;3.43;;;20.70;99.90;;;;;;5020917;28;20446;-72
2022/06/06 06:18:21;;;;;;;3.43;3.13;;;20.70;99.90;;;;;;5021796;28;20402;-73
2022/06/06 06:21:21;;;;;;;3.80;3.50;;;20.80;99.90;;;;;;5019628;28;20432;-74
2022/06/06 06:23:56;;;;;;;3.60;3.30;;;21.00;99.90;;;;;;5002988;28;20434;-73
2022/06/06 06:26:22;;;;;;;4.00;3.60;;;21.20;99.90;;;;;;5023157;28;20881;-73
2022/06/06 06:28:49;;;;;;;3.47;3.20;;;21.30;99.90;;;;;;5020935;28;20413;-73
2022/06/06 06:31:31;;;;;;;4.27;3.87;;;21.30;99.90;;;;;;5021019;28;20171;-73
2022/06/06 06:34:04;;;;;;;5.67;3.50;;;21.30;99.90;;;;;;5021786;28;20457;-73
2022/06/06 06:36:57;;;;;;;3.03;2.83;;;21.00;99.90;;;;;;5020460;28;20423;-72
2022/06/06 06:39:57;;;;;;;6.83;3.70;;;21.20;99.90;;;;;;5021550;28;20406;-72
2022/06/06 06:42:31;;;;;;;4.10;3.80;;;21.10;99.90;;;;;;5020116;28;20771;-73
2022/06/06 06:45:08;;;;;;;4.10;3.70;;;20.70;99.90;;;;;;5020952;28;20485;-73
2022/06/06 06:47:36;;;;;;;7.30;3.90;;;20.70;99.90;;;;;;5021740;28;20421;-72
2022/06/06 06:50:01;;;;;;;4.23;3.80;;;20.60;99.90;;;;;;5020133;28;21038;-73
2022/06/06 06:52:51;;;;;;;3.27;2.97;;;20.60;99.90;;;;;;5019680;28;20425;-73
2022/06/06 06:55:38;;;;;;;4.33;3.93;;;20.80;99.90;;;;;;5023944;28;20226;-74
2022/06/06 06:58:48;;;;;;;4.97;3.47;;;21.00;99.90;;;;;;5019238;28;20902;-73
2022/06/06 07:01:36;;;;;;;5.30;4.07;;;21.00;99.90;;;;;;5018629;28;20407;-73
2022/06/06 07:10:35;;;;;;;6.50;6.00;;;20.80;99.90;;;;;;5021123;28;20406;-73
2022/06/06 07:13:34;;;;;;;4.00;3.70;;;21.10;99.90;;;;;;5023396;28;21262;-73
2022/06/06 07:16:27;;;;;;;4.10;3.70;;;21.20;99.90;;;;;;5022017;28;20442;-73
2022/06/06 07:18:59;;;;;;;5.13;3.73;;;21.20;99.90;;;;;;5019549;28;20525;-72
2022/06/06 07:21:27;;;;;;;4.13;3.73;;;21.30;99.90;;;;;;5022623;28;20410;-74
2022/06/06 07:23:55;;;;;;;4.50;4.10;;;21.50;99.90;;;;;;5019411;28;20763;-73
2022/06/06 07:26:21;;;;;;;3.97;3.57;;;21.70;99.90;;;;;;5019767;28;20450;-73
2022/06/06 07:28:46;;;;;;;8.43;4.13;;;21.80;99.90;;;;;;5019197;28;20431;-74
2022/06/06 07:31:50;;;;;;;3.77;3.43;;;21.70;99.90;;;;;;5019547;28;20837;-73
2022/06/06 07:34:30;;;;;;;5.17;2.97;;;21.60;99.90;;;;;;4987748;28;20231;-73
2022/06/06 07:37:12;;;;;;;3.57;3.27;;;21.90;99.90;;;;;;5018456;28;20493;-74
2022/06/06 07:40:23;;;;;;;5.47;3.40;;;22.10;99.90;;;;;;5020419;28;20411;-73
2022/06/06 07:43:14;;;;;;;5.30;3.67;;;21.90;99.90;;;;;;5017804;28;20824;-73
2022/06/06 07:45:40;;;;;;;3.20;2.93;;;22.10;99.90;;;;;;5017589;28;20461;-74
2022/06/06 07:48:14;;;;;;;3.50;3.13;;;22.30;99.90;;;;;;5020096;28;20906;-74
2022/06/06 07:51:01;;;;;;;2.87;2.63;;;22.40;99.90;;;;;;5017000;28;20442;-74
2022/06/06 07:53:40;;;;;;;3.93;3.27;;;22.60;99.90;;;;;;5023405;28;20556;-75
2022/06/06 07:56:21;;;;;;;3.37;3.17;;;22.60;99.90;;;;;;5017982;28;20446;-75
2022/06/06 07:59:16;;;;;;;3.87;3.53;;;22.40;99.90;;;;;;5018418;28;20410;-72
2022/06/06 08:02:15;;;;;;;3.80;3.40;;;22.50;99.90;;;;;;5019017;28;20410;-73
2022/06/06 08:05:00;;;;;;;4.00;3.70;;;22.60;99.90;;;;;;5019726;28;20434;-73
2022/06/06 08:07:34;;;;;;;6.40;3.20;;;22.70;99.90;;;;;;5019634;28;20540;-74
2022/06/06 08:10:09;;;;;;;3.70;3.40;;;22.60;99.90;;;;;;5018794;28;20403;-74
2022/06/06 08:12:56;;;;;;;3.40;3.10;;;22.60;99.90;;;;;;5019636;28;20456;-74
2022/06/06 08:15:39;;;;;;;3.83;3.53;;;22.40;99.90;;;;;;5020175;28;21593;-74
2022/06/06 08:18:07;;;;;;;3.73;3.20;;;22.30;99.90;;;;;;5020129;28;20405;-73
2022/06/06 08:20:36;;;;;;;3.73;3.20;;;22.20;99.90;;;;;;5022444;28;20402;-73
2022/06/06 08:23:02;;;;;;;3.43;3.07;;;22.20;99.90;;;;;;5021890;28;20410;-73
2022/06/06 08:25:29;;;;;;;4.63;3.73;;;22.40;99.90;;;;;;5021682;28;20854;-74
2022/06/06 08:27:56;;;;;;;3.50;3.20;;;22.60;99.90;;;;;;5020559;28;20413;-73
2022/06/06 08:30:22;;;;;;;4.17;3.33;;;22.60;99.90;;;;;;5019446;28;20887;-73
2022/06/06 08:32:48;;;;;;;3.43;3.13;;;22.80;99.90;;;;;;5015417;28;20447;-74
2022/06/06 08:35:14;;;;;;;3.90;3.60;;;22.90;99.90;;;;;;5017518;28;20461;-72
2022/06/06 08:38:14;;;;;;;3.30;3.00;;;22.60;99.90;;;;;;5017685;28;20429;-73
2022/06/06 08:40:51;;;;;;;3.90;3.50;;;22.50;99.90;;;;;;5017024;28;20417;-74
2022/06/06 08:43:44;;;;;;;4.00;3.57;;;22.60;99.90;;;;;;5018374;28;20418;-73
2022/06/06 08:46:28;;;;;;;3.20;2.90;;;22.80;99.90;;;;;;5015840;28;20465;-74
2022/06/06 08:50:44;;;;;;;4.33;2.50;;;23.00;99.90;;;;;;5017856;28;20410;-75
2022/06/06 08:52:27;;;;;;;3.73;2.83;;;23.10;99.90;;;;;;5019013;28;20427;-73
2022/06/06 08:55:32;;;;;;;2.50;2.30;;;23.20;99.90;;;;;;5016135;28;20430;-73
2022/06/06 08:58:03;;;;;;;3.33;2.50;;;23.50;99.90;;;;;;5015654;28;20430;-74
2022/06/06 09:00:51;;;;;;;3.10;2.60;;;23.50;99.90;;;;;;5017053;28;20500;-74
2022/06/06 09:03:32;;;;;;;3.90;3.50;;;23.60;99.90;;;;;;5018809;28;20489;-73
2022/06/06 09:06:25;;;;;;;4.40;2.30;;;23.60;99.90;;;;;;5014928;28;20466;-73
2022/06/06 09:09:12;;;;;;;2.63;2.43;;;23.70;99.90;;;;;;5017585;28;20413;-74
2022/06/06 09:12:02;;;;;;;2.77;2.23;;;23.80;99.90;;;;;;5021055;28;20473;-74
2022/06/06 09:14:58;;;;;;;3.07;2.60;;;24.10;99.90;;;;;;5024112;28;20429;-74
2022/06/06 09:17:54;;;;;;;2.53;2.20;;;24.30;99.90;;;;;;5020089;28;20414;-74
2022/06/06 09:20:57;;;;;;;4.47;2.30;;;24.20;98.90;;;;;;5019607;28;20450;-74
2022/06/06 09:23:41;;;;;;;3.03;2.30;;;24.30;99.90;;;;;;4947355;28;20437;-73
2022/06/06 09:26:10;;;;;;;2.07;1.70;;;24.30;99.50;;;;;;5020231;28;20465;-73
2022/06/06 09:28:57;;;;;;;2.50;2.30;;;24.50;98.60;;;;;;5019166;28;20418;-74
2022/06/06 09:31:28;;;;;;;3.93;2.30;;;24.30;98.60;;;;;;5024082;28;20468;-74
2022/06/06 09:34:21;;;;;;;4.47;2.53;;;24.20;98.60;;;;;;5025457;28;20405;-74
2022/06/06 09:37:20;;;;;;;2.80;2.07;;;24.00;99.30;;;;;;5023774;28;20825;-72
2022/06/06 09:40:05;;;;;;;8.57;2.60;;;23.80;98.70;;;;;;5022984;28;20793;-73
2022/06/06 09:42:37;;;;;;;3.07;2.17;;;23.80;99.50;;;;;;5022539;28;20746;-74
2022/06/06 09:45:18;;;;;;;2.10;2.00;;;24.00;98.50;;;;;;5023329;28;20434;-74
2022/06/06 09:48:13;;;;;;;2.70;2.40;;;24.40;98.30;;;;;;5023421;28;20414;-74
2022/06/06 09:50:57;;;;;;;2.30;1.93;;;24.30;99.70;;;;;;5021882;28;20814;-75
2022/06/06 09:59:01;;;;;;;3.40;2.03;;;24.50;98.10;;;;;;5025735;28;20773;-73
2022/06/06 10:00:10;;;;;;;4.87;2.03;;;24.50;97.70;;;;;;4999523;28;20417;-73
2022/06/06 10:02:44;;;;;;;3.40;2.10;;;24.20;98.30;;;;;;5020839;28;20475;-73
2022/06/06 10:05:41;;;;;;;2.30;2.00;;;24.10;98.10;;;;;;5021619;28;20434;-73
2022/06/06 10:08:40;;;;;;;3.47;2.40;;;24.40;97.60;;;;;;5018647;28;20423;-75
2022/06/06 10:11:20;;;;;;;3.10;2.10;;;24.70;97.10;;;;;;5020668;28;20398;-74
2022/06/06 10:14:02;;;;;;;1.90;1.80;;;24.60;95.60;;;;;;5019224;28;20399;-74
2022/06/06 10:17:03;;;;;;;3.10;1.93;;;24.50;95.60;;;;;;5019320;28;20727;-74
2022/06/06 10:20:04;;;;;;;2.17;1.90;;;24.60;96.40;;;;;;5023488;28;20410;-73
2022/06/06 10:23:03;;;;;;;2.33;2.13;;;24.70;96.60;;;;;;5023406;28;20850;-73
2022/06/06 10:25:45;;;;;;;2.50;1.97;;;25.00;97.50;;;;;;5019630;28;20550;-73
2022/06/06 10:28:31;;;;;;;2.13;1.90;;;24.90;96.50;;;;;;5023477;28;20403;-74
2022/06/06 10:31:16;;;;;;;2.80;2.23;;;25.20;96.20;;;;;;5022044;28;20509;-73
2022/06/06 10:34:01;;;;;;;2.30;2.10;;;25.40;97.00;;;;;;5020237;28;20438;-74
2022/06/06 10:36:40;;;;;;;2.00;1.90;;;25.70;95.30;;;;;;5020027;28;20427;-74
2022/06/06 10:39:08;;;;;;;3.10;2.10;;;25.80;95.10;;;;;;5024184;28;20403;-74
2022/06/06 10:42:06;;;;;;;2.67;2.13;;;25.40;95.70;;;;;;5023024;28;20505;-74
2022/06/06 10:44:53;;;;;;;1.73;1.63;;;25.60;96.00;;;;;;4992091;28;20498;-75
2022/06/06 10:47:53;;;;;;;3.63;2.47;;;25.70;95.10;;;;;;5017845;28;20478;-72
2022/06/06 10:51:36;;;;;;;2.23;1.90;;;25.40;95.30;;;;;;5021041;28;20423;-73
2022/06/06 10:53:56;;;;;;;2.20;2.00;;;25.30;95.10;;;;;;5020424;28;21061;-74
2022/06/06 10:56:43;;;;;;;3.10;2.07;;;25.20;95.70;;;;;;5021096;28;20444;-74
2022/06/06 10:59:41;;;;;;;4.70;3.43;;;25.50;96.40;;;;;;5020403;28;20407;-75
2022/06/06 11:02:41;;;;;;;2.70;2.50;;;25.60;96.20;;;;;;5019742;28;20951;-73
2022/06/06 11:05:15;;;;;;;2.60;1.87;;;25.60;97.00;;;;;;5018882;28;20837;-73
2022/06/06 11:08:04;;;;;;;3.00;2.20;;;26.00;94.90;;;;;;5019167;28;20457;-73
2022/06/06 11:11:07;;;;;;;1.80;1.70;;;26.30;94.20;;;;;;5017654;28;20415;-73
2022/06/06 11:13:39;;;;;;;2.33;2.00;;;26.60;93.80;;;;;;5020274;28;20414;-73
2022/06/06 11:16:26;;;;;;;3.60;1.90;;;26.40;92.30;;;;;;5020553;28;20457;-74
2022/06/06 11:19:23;;;;;;;2.40;2.20;;;26.20;92.50;;;;;;5018719;28;20421;-75
2022/06/06 11:22:04;;;;;;;2.03;1.83;;;25.90;93.20;;;;;;5007598;28;20800;-74
2022/06/06 11:24:48;;;;;;;3.77;2.10;;;26.20;93.40;;;;;;5020562;28;20427;-75
2022/06/06 11:27:44;;;;;;;2.20;2.10;;;26.50;92.90;;;;;;5019162;28;20508;-73
2022/06/06 11:30:13;;;;;;;2.80;2.17;;;26.70;92.80;;;;;;5021268;28;20447;-75
2022/06/06 11:32:56;;;;;;;3.40;2.10;;;27.00;91.80;;;;;;5018599;28;20445;-74
2022/06/06 11:35:28;;;;;;;2.67;1.90;;;26.80;92.50;;;;;;5018958;28;20532;-76
2022/06/06 11:38:30;;;;;;;2.00;1.90;;;27.10;91.90;;;;;;5019254;28;20409;-74
2022/06/06 11:41:21;;;;;;;2.27;1.87;;;27.10;92.50;;;;;;5019081;28;20418;-74
2022/06/06 11:44:00;;;;;;;2.27;1.93;;;27.40;92.00;;;;;;5021042;28;20501;-74
2022/06/06 11:46:58;;;;;;;2.30;2.00;;;27.20;91.30;;;;;;5019769;28;20489;-74
2022/06/06 11:50:01;;;;;;;2.70;2.33;;;27.10;92.90;;;;;;5020300;28;20415;-75
2022/06/06 11:52:44;;;;;;;2.37;2.10;;;26.70;91.30;;;;;;5018041;28;20501;-73
2022/06/06 11:55:32;;;;;;;2.53;2.33;;;26.30;92.10;;;;;;5018393;28;20436;-75
2022/06/06 11:58:50;;;;;;;3.33;2.30;;;25.90;92.00;;;;;;5019507;28;20559;-73
2022/06/06 12:01:43;;;;;;;2.13;1.93;;;26.00;92.20;;;;;;5011437;28;20434;-75
2022/06/06 12:04:48;;;;;;;2.33;2.13;;;26.30;92.10;;;;;;5019519;28;20437;-75
2022/06/06 12:07:20;;;;;;;2.20;2.00;;;26.90;91.50;;;;;;5019608;28;21061;-75
2022/06/06 12:10:11;;;;;;;2.23;2.03;;;27.30;92.40;;;;;;5018720;28;20449;-73
2022/06/06 12:13:02;;;;;;;2.53;1.83;;;27.20;91.40;;;;;;5020103;28;20807;-75
2022/06/06 12:15:46;;;;;;;2.37;2.17;;;27.00;89.40;;;;;;5017417;28;20431;-74
2022/06/06 12:18:49;;;;;;;2.07;1.70;;;26.50;90.50;;;;;;5018909;28;20415;-74
2022/06/06 12:21:38;;;;;;;2.60;2.40;;;26.20;90.80;;;;;;5020033;28;20420;-74
2022/06/06 12:24:34;;;;;;;2.03;1.80;;;25.90;92.00;;;;;;5018345;28;20419;-74
2022/06/06 12:27:09;;;;;;;2.17;1.97;;;25.30;91.80;;;;;;5019992;28;20516;-77
2022/06/06 12:30:19;;;;;;;2.50;2.30;;;25.40;92.40;;;;;;5020551;28;20405;-74
2022/06/06 12:33:02;;;;;;;2.50;2.10;;;25.50;91.30;;;;;;5016923;28;20413;-74
2022/06/06 12:35:54;;;;;;;2.80;2.10;;;25.40;90.80;;;;;;5014822;28;20470;-74
2022/06/06 12:38:39;;;;;;;2.33;2.00;;;26.30;89.40;;;;;;5023216;28;20463;-73
2022/06/06 12:41:34;;;;;;;2.30;2.10;;;28.30;86.10;;;;;;5021660;28;20913;-73
2022/06/06 12:44:08;;;;;;;4.50;2.03;;;30.10;82.50;;;;;;5019361;28;20411;-74
2022/06/06 12:47:05;;;;;;;2.80;2.10;;;30.70;74.90;;;;;;5020020;28;20450;-73
2022/06/06 12:49:40;;;;;;;3.07;1.87;;;30.90;73.10;;;;;;5015829;28;20403;-73
2022/06/06 12:52:47;;;;;;;1.77;1.50;;;31.00;76.20;;;;;;5021172;28;20409;-74
2022/06/06 12:55:40;;;;;;;2.30;1.90;;;31.00;71.90;;;;;;4974885;28;20450;-74
2022/06/06 12:58:15;;;;;;;2.60;2.40;;;30.20;72.80;;;;;;5018930;28;20402;-73
2022/06/06 13:03:56;;;;;;;2.00;1.70;;;31.00;71.00;;;;;;5020620;28;20394;-74
2022/06/06 13:06:54;;;;;;;2.00;1.80;;;31.00;69.40;;;;;;5022082;28;20483;-73
2022/06/06 13:09:25;;;;;;;2.80;1.87;;;30.50;77.30;;;;;;5018729;28;20769;-74
2022/06/06 13:12:15;;;;;;;1.80;1.60;;;29.50;73.20;;;;;;5025144;28;20446;-73
2022/06/06 13:15:00;;;;;;;2.67;1.80;;;28.80;73.30;;;;;;5021186;28;20788;-73
2022/06/06 13:18:00;;;;;;;2.37;2.17;;;27.80;76.80;;;;;;5017530;28;20501;-73
2022/06/06 13:20:40;;;;;;;1.80;1.57;;;26.90;78.00;;;;;;5023555;28;20552;-73
2022/06/06 13:23:50;;;;;;;2.10;1.90;;;25.90;80.50;;;;;;5020135;28;20405;-72
2022/06/06 13:26:46;;;;;;;2.23;2.03;;;25.90;82.00;;;;;;4981169;28;20218;-70
2022/06/06 13:29:28;;;;;;;4.40;1.80;;;25.70;82.00;;;;;;5016975;28;20423;-71
2022/06/06 13:32:31;;;;;;;2.53;2.33;;;25.60;83.60;;;;;;5019558;28;20394;-70
2022/06/06 13:35:12;;;;;;;3.50;2.20;;;24.80;86.90;;;;;;5018607;28;20821;-72
2022/06/06 13:38:03;;;;;;;2.20;2.00;;;24.30;88.80;;;;;;5017788;28;20421;-71
2022/06/06 13:40:44;;;;;;;2.17;1.90;;;24.30;88.60;;;;;;5020127;28;20801;-71
2022/06/06 13:43:59;;;;;;;2.87;1.97;;;24.20;88.90;;;;;;5017313;28;20916;-72
2022/06/06 13:46:44;;;;;;;3.00;1.87;;;24.10;89.40;;;;;;5023483;28;20456;-71
2022/06/06 13:49:25;;;;;;;2.80;2.40;;;23.80;89.60;;;;;;5009040;28;20907;-71
2022/06/06 13:52:30;;;;;;;4.13;3.43;;;23.90;90.10;;;;;;5008823;28;20441;-70
2022/06/06 13:54:55;;;;;;;4.20;3.20;;;24.00;90.30;;;;;;5008431;28;20927;-71
2022/06/06 13:57:27;;;;;;;2.90;2.70;;;23.70;90.70;;;;;;5026491;28;20424;-70
2022/06/06 14:00:19;;;;;;;3.60;2.30;;;23.80;91.10;;;;;;5026353;28;20184;-70
2022/06/06 14:03:08;;;;;;;2.60;2.40;;;24.00;91.30;;;;;;5018883;28;20501;-73
2022/06/06 14:06:02;;;;;;;3.37;3.07;;;24.20;90.60;;;;;;5008847;28;20457;-70
2022/06/06 14:08:46;;;;;;;3.77;3.47;;;24.00;90.60;;;;;;5012640;28;20410;-70
2022/06/06 14:11:13;;;;;;;4.43;4.03;;;24.20;91.10;;;;;;5007992;28;20434;-70
2022/06/06 14:13:54;;;;;;;4.73;3.17;;;24.20;90.80;;;;;;5014114;28;20406;-69
2022/06/06 14:16:41;;;;;;;2.43;2.23;;;24.30;90.90;;;;;;5024025;28;20410;-71
2022/06/06 14:19:23;;;;;;;2.47;2.27;;;24.60;90.50;;;;;;5025702;28;20453;-70
2022/06/06 14:21:57;;;;;;;4.00;2.67;;;24.30;90.70;;;;;;5012917;28;20414;-72